Terminal Aerodrome Forecast
Issued by NWS

Home | Current Version | Previous Version | Text Only | Print | Product List | Glossary On
Versions: 1 2 3 4 5 6 7 8 9 10 11 12 13 14
000
FTUS43 KEAX 020500
TAFSTJ
TAF
KSTJ 020520Z 0206/0306 13003KT 4SM BR BKN008
     FM021500 VRB06KT P6SM VCTS BKN015CB
      TEMPO 0215/0218 5SM TSRA SCT020CB OVC035
     FM021800 32009KT 5SM -SHRA VCTS OVC020CB
     FM030100 34009KT P6SM SCT020=

USA.gov is the U.S. government's official web portal to all federal, state and local government web resources and services.